createdAt,value
2023-03-22T00:01:12.044Z,55.63
2023-03-22T00:04:14.398Z,55.14
2023-03-22T00:07:16.810Z,55.10
2023-03-22T00:10:19.145Z,55.53
2023-03-22T00:13:21.480Z,55.66
2023-03-22T00:16:23.918Z,55.19
2023-03-22T00:19:26.733Z,55.31
2023-03-22T00:22:29.082Z,55.60
2023-03-22T00:25:31.489Z,55.25
2023-03-22T00:28:34.622Z,55.72
2023-03-22T00:31:37.068Z,55.88
2023-03-22T00:34:39.462Z,55.42
2023-03-22T00:37:41.782Z,55.67
2023-03-22T00:40:44.445Z,55.71
2023-03-22T00:43:47.364Z,55.81
2023-03-22T00:46:49.728Z,55.81
2023-03-22T00:49:52.106Z,55.66
2023-03-22T00:52:54.448Z,55.55
2023-03-22T00:55:57.424Z,56.05
2023-03-22T00:59:00.403Z,55.67
2023-03-22T01:02:04.291Z,56.03
2023-03-22T01:05:07.332Z,56.17
2023-03-22T01:08:10.488Z,55.76
2023-03-22T01:11:13.154Z,55.62
2023-03-22T01:14:15.546Z,56.16
2023-03-22T01:17:17.981Z,55.91
2023-03-22T01:20:20.462Z,56.23
2023-03-22T01:23:22.840Z,55.73
2023-03-22T01:26:25.652Z,55.97
2023-03-22T01:29:28.202Z,56.19
2023-03-22T01:32:30.595Z,56.03
2023-03-22T01:35:33.888Z,56.43
2023-03-22T01:38:36.552Z,56.06
2023-03-22T01:41:39.370Z,56.05
2023-03-22T01:45:14.396Z,56.44
2023-03-22T01:48:34.285Z,56.33
2023-03-22T01:51:53.780Z,56.27
2023-03-22T01:55:09.846Z,56.24
2023-03-22T01:58:19.795Z,55.99
2023-03-22T02:01:31.066Z,56.00
2023-03-22T02:04:39.300Z,56.17
2023-03-22T02:07:44.198Z,56.42
2023-03-22T02:10:47.082Z,56.05
2023-03-22T02:14:14.766Z,56.06
2023-03-22T02:17:53.701Z,56.36
2023-03-22T02:21:26.999Z,56.15
2023-03-22T02:25:00.326Z,56.33
2023-03-22T02:28:36.711Z,55.94
2023-03-22T02:32:06.892Z,56.10
2023-03-22T02:35:33.571Z,56.23
2023-03-22T02:38:57.835Z,55.93
2023-03-22T02:42:17.414Z,56.21
2023-03-22T02:45:31.763Z,55.92
2023-03-22T02:48:54.316Z,55.88
2023-03-22T02:52:07.291Z,55.68
2023-03-22T02:55:19.097Z,55.60
2023-03-22T02:58:26.604Z,55.79
2023-03-22T03:01:34.383Z,55.86
2023-03-22T03:04:41.631Z,55.82
2023-03-22T03:07:48.920Z,55.72
2023-03-22T03:10:51.921Z,55.41
2023-03-22T03:13:54.542Z,55.67
2023-03-22T03:17:28.174Z,55.34
2023-03-22T03:20:39.838Z,55.48
2023-03-22T03:23:49.642Z,55.23
2023-03-22T03:26:58.472Z,55.73
2023-03-22T03:30:17.193Z,55.61
2023-03-22T03:33:22.479Z,55.19
2023-03-22T03:36:26.998Z,55.17
2023-03-22T03:39:33.469Z,55.06
2023-03-22T03:42:37.791Z,55.13
2023-03-22T03:45:40.809Z,55.64
2023-03-22T03:48:47.110Z,55.36
2023-03-22T03:51:52.619Z,55.06
2023-03-22T03:54:55.287Z,55.23
2023-03-22T03:58:03.516Z,55.21
2023-03-22T04:01:06.180Z,55.44
2023-03-22T04:04:31.229Z,54.84
2023-03-22T04:07:37.452Z,54.92
2023-03-22T04:10:40.099Z,55.35
2023-03-22T04:13:42.657Z,55.43
2023-03-22T04:16:49.373Z,54.77
2023-03-22T04:19:57.182Z,54.40
2023-03-22T04:23:00.327Z,53.75
2023-03-22T04:26:03.776Z,52.95
2023-03-22T04:29:16.362Z,52.13
2023-03-22T04:32:26.306Z,51.90
2023-03-22T04:35:30.415Z,50.60
2023-03-22T04:38:33.876Z,50.49
2023-03-22T04:41:37.233Z,49.93
2023-03-22T04:44:39.659Z,48.84
2023-03-22T04:47:42.207Z,48.51
2023-03-22T04:50:45.661Z,48.34
2023-03-22T04:53:48.116Z,48.00
2023-03-22T04:56:50.933Z,47.81
2023-03-22T04:59:55.374Z,47.65
2023-03-22T05:02:58.499Z,48.44
2023-03-22T05:06:10.397Z,48.13
2023-03-22T05:09:23.494Z,47.98
2023-03-22T05:12:28.578Z,48.34
2023-03-22T05:15:39.761Z,48.79
2023-03-22T05:18:45.626Z,48.72
2023-03-22T05:21:48.810Z,49.17
2023-03-22T05:24:51.368Z,49.30
2023-03-22T05:28:03.596Z,49.21
2023-03-22T05:31:22.664Z,49.43
2023-03-22T05:34:35.877Z,49.92
2023-03-22T05:37:49.426Z,50.07
2023-03-22T05:40:54.448Z,49.24
2023-03-22T05:43:57.457Z,49.52
2023-03-22T05:47:00.114Z,49.28
2023-03-22T05:50:02.609Z,48.18
2023-03-22T05:53:07.070Z,48.09
2023-03-22T05:56:47.691Z,47.71
2023-03-22T05:59:53.930Z,47.56
2023-03-22T06:03:03.747Z,47.62
2023-03-22T06:06:10.826Z,47.50
2023-03-22T06:09:23.615Z,47.29
2023-03-22T06:12:30.064Z,47.41
2023-03-22T06:15:41.727Z,46.82
2023-03-22T06:18:46.407Z,46.55
2023-03-22T06:21:48.778Z,46.56
2023-03-22T06:24:52.413Z,46.38
2023-03-22T06:28:08.799Z,46.08
2023-03-22T06:31:13.355Z,45.90
2023-03-22T06:34:24.435Z,45.89
2023-03-22T06:37:27.026Z,45.95
2023-03-22T06:40:30.725Z,45.83
2023-03-22T06:43:33.234Z,46.01
2023-03-22T06:46:47.882Z,46.24
2023-03-22T06:50:14.939Z,46.06
2023-03-22T06:53:37.631Z,46.27
2023-03-22T06:56:40.473Z,46.66
2023-03-22T06:59:43.480Z,46.57
2023-03-22T07:02:46.114Z,47.53
2023-03-22T07:06:07.277Z,47.89
2023-03-22T07:09:13.265Z,47.94
2023-03-22T07:12:16.193Z,47.89
2023-03-22T07:15:24.277Z,47.34
2023-03-22T07:18:36.860Z,47.00
2023-03-22T07:21:40.005Z,46.46
2023-03-22T07:24:57.027Z,46.45
2023-03-22T07:28:01.768Z,46.44
2023-03-22T07:31:07.928Z,47.10
2023-03-22T07:34:20.850Z,47.01
2023-03-22T07:37:46.429Z,47.17
2023-03-22T07:40:57.625Z,46.92
2023-03-22T07:44:17.738Z,46.95
2023-03-22T07:47:42.617Z,46.33
2023-03-22T07:50:56.765Z,46.20
2023-03-22T07:54:01.691Z,46.34
2023-03-22T07:57:05.462Z,45.66
2023-03-22T08:00:12.191Z,45.59
2023-03-22T08:03:37.836Z,45.16
2023-03-22T08:06:49.985Z,45.00
2023-03-22T08:09:52.792Z,44.71
2023-03-22T08:12:55.479Z,44.31
2023-03-22T08:16:01.140Z,44.11
2023-03-22T08:19:03.621Z,44.07
2023-03-22T08:22:10.152Z,43.72
2023-03-22T08:25:32.494Z,43.58
2023-03-22T08:28:51.150Z,43.96
2023-03-22T08:31:54.281Z,44.35
2023-03-22T08:34:56.751Z,44.95
2023-03-22T08:37:59.363Z,45.38
2023-03-22T08:41:10.844Z,45.63
2023-03-22T08:44:13.368Z,46.14
2023-03-22T08:47:16.902Z,46.28
2023-03-22T08:50:20.180Z,46.46
2023-03-22T08:53:29.999Z,46.57
2023-03-22T08:56:52.090Z,46.58
2023-03-22T09:00:25.113Z,46.64
2023-03-22T09:03:40.562Z,46.71
2023-03-22T09:06:45.459Z,46.12
2023-03-22T09:09:47.899Z,45.94
2023-03-22T09:12:50.833Z,45.51
2023-03-22T09:15:53.354Z,45.19
2023-03-22T09:19:02.496Z,45.20
2023-03-22T09:22:06.271Z,45.05
2023-03-22T09:25:17.056Z,44.73
2023-03-22T09:28:24.053Z,44.78
2023-03-22T09:31:30.949Z,44.64
2023-03-22T09:34:44.085Z,44.69
2023-03-22T09:37:55.619Z,44.74
2023-03-22T09:41:06.806Z,44.71
2023-03-22T09:44:15.520Z,44.75
2023-03-22T09:47:43.901Z,44.49
2023-03-22T09:50:52.780Z,44.57
2023-03-22T09:53:55.386Z,44.63
2023-03-22T09:57:06.774Z,44.78
2023-03-22T10:00:44.729Z,44.66
2023-03-22T10:03:47.255Z,44.81
2023-03-22T10:06:59.987Z,44.64
2023-03-22T10:10:13.451Z,44.86
2023-03-22T10:13:18.029Z,44.80
2023-03-22T10:16:28.691Z,45.04
2023-03-22T10:19:35.788Z,45.02
2023-03-22T10:22:43.193Z,44.88
2023-03-22T10:25:46.470Z,45.11
2023-03-22T10:29:06.054Z,45.12
2023-03-22T10:32:54.786Z,45.02
2023-03-22T10:35:59.772Z,45.27
2023-03-22T10:39:29.282Z,45.01
2023-03-22T10:42:31.948Z,44.80
2023-03-22T10:45:36.507Z,44.48
2023-03-22T10:48:42.516Z,44.38
2023-03-22T10:51:49.994Z,44.71
2023-03-22T10:54:52.614Z,44.87
2023-03-22T10:57:59.635Z,44.44
2023-03-22T11:01:09.211Z,44.31
2023-03-22T11:04:15.792Z,44.05
2023-03-22T11:07:44.356Z,44.13
2023-03-22T11:10:51.356Z,44.03
2023-03-22T11:14:15.249Z,44.13
2023-03-22T11:17:23.810Z,44.02
2023-03-22T11:20:26.324Z,44.01
2023-03-22T11:23:32.809Z,44.28
2023-03-22T11:26:40.702Z,44.05
2023-03-22T11:29:47.362Z,42.91
2023-03-22T11:33:09.994Z,43.22
2023-03-22T11:36:18.101Z,43.27
2023-03-22T11:39:23.869Z,43.13
2023-03-22T11:42:26.577Z,43.61
2023-03-22T11:45:31.729Z,44.11
2023-03-22T11:48:35.032Z,44.59
2023-03-22T11:51:39.148Z,44.79
2023-03-22T11:54:42.650Z,44.79
2023-03-22T11:57:45.785Z,45.18
2023-03-22T12:00:52.475Z,45.09
2023-03-22T12:03:57.061Z,44.82
2023-03-22T12:07:00.665Z,45.13
2023-03-22T12:10:12.630Z,45.11
2023-03-22T12:13:21.308Z,45.16
2023-03-22T12:16:28.709Z,45.50
2023-03-22T12:19:31.205Z,45.61
2023-03-22T12:22:37.702Z,45.79
2023-03-22T12:25:40.779Z,45.92
2023-03-22T12:28:56.485Z,46.28
2023-03-22T12:32:03.478Z,46.47
2023-03-22T12:35:17.253Z,46.81
2023-03-22T12:38:27.881Z,46.78
2023-03-22T12:41:39.031Z,46.40
2023-03-22T12:44:52.759Z,46.19
2023-03-22T12:48:45.181Z,46.12
2023-03-22T12:51:49.273Z,45.73
2023-03-22T12:54:52.594Z,45.34
2023-03-22T12:57:55.710Z,45.12
2023-03-22T13:01:06.528Z,44.76
2023-03-22T13:04:35.795Z,45.03
2023-03-22T13:07:45.970Z,44.61
2023-03-22T13:11:01.900Z,45.00
2023-03-22T13:14:04.297Z,45.02
2023-03-22T13:17:07.444Z,45.31
2023-03-22T13:20:13.677Z,45.13
2023-03-22T13:23:26.559Z,45.58
2023-03-22T13:26:32.847Z,45.93
2023-03-22T13:29:36.574Z,45.68
2023-03-22T13:32:51.647Z,45.55
2023-03-22T13:36:07.035Z,45.14
2023-03-22T13:39:12.519Z,44.87
2023-03-22T13:42:19.534Z,44.55
2023-03-22T13:45:33.598Z,44.52
2023-03-22T13:49:02.500Z,43.94
2023-03-22T13:52:07.693Z,43.86
2023-03-22T13:55:38.113Z,43.84
2023-03-22T13:58:46.715Z,43.90
2023-03-22T14:02:15.904Z,44.06
2023-03-22T14:05:22.432Z,44.10
2023-03-22T14:08:28.546Z,44.06
2023-03-22T14:12:01.570Z,44.21
2023-03-22T14:15:05.325Z,44.50
2023-03-22T14:18:33.654Z,44.58
2023-03-22T14:21:42.925Z,45.04
